Aviation Digital Data Service (ADDS)

Output produced by METARs form (0950 UTC 23 April 2017)
found at http://www.aviationweather.gov/adds/metars/
 
LWOH 231000Z 14006KT 120V190 9999 FEW040 11/00 Q1017
TAF LWOH 230830Z 2309/2409 34005KT 9999 FEW040 SCT100 
     TEMPO 2311/2318 27010KT 
     PROB30 
     TEMPO 2314/2320 SHRA FEW035 BKN040
       
LWSK 230930Z 03004KT 9999 FEW050 SCT100 16/01 Q1016 NOSIG
TAF LWSK 230830Z 2309/2409 VRB02KT 9999 FEW050 SCT100 
     BECMG 2311/2313 36010KT SCT040 BKN080 
     PROB30 
     TEMPO 2314/2318 01020KT SHRA
       
LWOH 231000Z 14006KT 120V190 9999 FEW040 11/00 Q1017
TAF LWOH 230830Z 2309/2409 34005KT 9999 FEW040 SCT100 
     TEMPO 2311/2318 27010KT 
     PROB30 
     TEMPO 2314/2320 SHRA FEW035 BKN040
       
LWSK 230930Z 03004KT 9999 FEW050 SCT100 16/01 Q1016 NOSIG
TAF LWSK 230830Z 2309/2409 VRB02KT 9999 FEW050 SCT100 
     BECMG 2311/2313 36010KT SCT040 BKN080 
     PROB30 
     TEMPO 2314/2318 01020KT SHRA